Time;durP1;ratioP1;P1;durP2;ratioP2;P2;SDS_P1;SDS_P2;PMS_P1;PMS_P2;Temp;Humidity;BMP_temperature;BMP_pressure;BME280_temperature;BME280_humidity;BME280_pressure;Samples;Min_cycle;Max_cycle;Signal;HPM_P1;HPM_P2
2022/07/20 00:00:23;;;;;;;;;;;512.40;1664.00;;;;;;5090750;28;20441;-60
2022/07/20 00:02:48;;;;;;;;;;;512.40;1664.00;;;;;;5089697;28;19912;-60
2022/07/20 00:05:14;;;;;;;;;;;512.40;1664.00;;;;;;5090492;28;19908;-60
2022/07/20 00:07:39;;;;;;;;;;;512.40;1664.00;;;;;;5090325;28;19912;-63
2022/07/20 00:12:49;;;;;;;;;;;512.50;1638.40;;;;;;5088555;28;19934;-63
2022/07/20 00:15:15;;;;;;;;;;;512.40;1664.00;;;;;;5090225;28;20374;-63
2022/07/20 00:17:40;;;;;;;;;;;512.30;1689.60;;;;;;5089285;28;20262;-61
2022/07/20 00:20:06;;;;;;;;;;;512.30;1664.00;;;;;;5089347;28;19951;-62
2022/07/20 00:22:32;;;;;;;;;;;512.30;1664.00;;;;;;5089251;28;19908;-62
2022/07/20 00:24:57;;;;;;;;;;;512.30;1664.00;;;;;;5089918;28;19915;-61
2022/07/20 00:27:23;;;;;;;;;;;512.30;1664.00;;;;;;5090048;28;20015;-62
2022/07/20 00:29:48;;;;;;;;;;;512.30;1664.00;;;;;;5089901;28;19970;-63
2022/07/20 00:32:14;;;;;;;;;;;512.30;1664.00;;;;;;5089988;28;19908;-62
2022/07/20 00:34:39;;;;;;;;;;;512.20;1689.60;;;;;;5089673;28;20295;-62
2022/07/20 00:37:05;;;;;;;;;;;512.10;1715.20;;;;;;5089977;28;19923;-62
2022/07/20 00:39:30;;;;;;;;;;;512.10;1689.60;;;;;;5090263;28;19908;-61
2022/07/20 00:41:56;;;;;;;;;;;512.00;1715.20;;;;;;5090170;28;19923;-62
2022/07/20 00:44:21;;;;;;;;;;;512.00;1715.20;;;;;;5089976;28;19917;-62
2022/07/20 00:46:47;;;;;;;;;;;487.30;1715.20;;;;;;5089585;28;20446;-62
2022/07/20 00:49:14;;;;;;;;;;;512.00;1715.20;;;;;;5089904;28;19978;-62
2022/07/20 00:51:40;;;;;;;;;;;487.30;1715.20;;;;;;5089945;28;19999;-64
2022/07/20 00:54:06;;;;;;;;;;;487.20;1740.80;;;;;;5089706;28;19916;-62
2022/07/20 00:56:33;;;;;;;;;;;487.20;1740.80;;;;;;5089849;28;19963;-62
2022/07/20 00:58:58;;;;;;;;;;;487.20;1740.80;;;;;;5089410;28;19961;-62
2022/07/20 01:01:24;;;;;;;;;;;487.20;1715.20;;;;;;5089453;28;19928;-63
2022/07/20 01:03:49;;;;;;;;;;;487.10;1740.80;;;;;;5089832;28;20413;-62
2022/07/20 01:06:15;;;;;;;;;;;487.00;1766.40;;;;;;5089450;28;19912;-63
2022/07/20 01:08:41;;;;;;;;;;;486.90;1766.40;;;;;;5089683;28;20196;-62
2022/07/20 01:11:06;;;;;;;;;;;486.90;1766.40;;;;;;5089255;28;19948;-62
2022/07/20 01:13:32;;;;;;;;;;;487.00;1740.80;;;;;;5089034;28;19924;-62
2022/07/20 01:15:58;;;;;;;;;;;487.00;1740.80;;;;;;5089289;28;19916;-62
2022/07/20 01:18:24;;;;;;;;;;;486.90;1766.40;;;;;;5089586;28;19931;-62
2022/07/20 01:20:50;;;;;;;;;;;486.90;1766.40;;;;;;5089274;28;19908;-62
2022/07/20 01:23:16;;;;;;;;;;;486.90;1766.40;;;;;;5089259;28;19912;-62
2022/07/20 01:25:42;;;;;;;;;;;486.80;1766.40;;;;;;5088943;28;19920;-61
2022/07/20 01:28:08;;;;;;;;;;;486.80;1766.40;;;;;;5089094;28;19908;-62
2022/07/20 01:30:33;;;;;;;;;;;486.70;1792.00;;;;;;5089373;28;19912;-62
2022/07/20 01:32:59;;;;;;;;;;;486.70;1766.40;;;;;;5089009;28;19919;-62
2022/07/20 01:35:24;;;;;;;;;;;486.70;1792.00;;;;;;5088903;28;20136;-62
2022/07/20 01:37:50;;;;;;;;;;;486.80;1766.40;;;;;;5089024;28;19912;-62
2022/07/20 01:40:16;;;;;;;;;;;486.70;1792.00;;;;;;5088354;28;20594;-62
2022/07/20 01:42:41;;;;;;;;;;;486.70;1817.60;;;;;;5089117;28;19923;-62
2022/07/20 01:45:07;;;;;;;;;;;486.60;1817.60;;;;;;5088858;28;19908;-61
2022/07/20 01:47:32;;;;;;;;;;;486.60;1817.60;;;;;;5089046;28;19908;-61
2022/07/20 01:49:58;;;;;;;;;;;486.50;1817.60;;;;;;5088780;28;19908;-62
2022/07/20 01:52:24;;;;;;;;;;;486.40;1843.20;;;;;;5088481;28;19912;-64
2022/07/20 01:54:49;;;;;;;;;;;486.40;1843.20;;;;;;5089201;28;20484;-62
2022/07/20 01:57:15;;;;;;;;;;;486.40;1817.60;;;;;;5088852;28;20290;-62
2022/07/20 01:59:40;;;;;;;;;;;486.40;1843.20;;;;;;5089061;28;19912;-62
2022/07/20 02:02:06;;;;;;;;;;;461.70;1868.80;;;;;;5088547;28;19927;-62
2022/07/20 02:04:31;;;;;;;;;;;461.70;1868.80;;;;;;5088374;28;20789;-63
2022/07/20 02:06:57;;;;;;;;;;;461.70;1843.20;;;;;;5088680;28;19915;-62
2022/07/20 02:09:23;;;;;;;;;;;461.70;1843.20;;;;;;5088953;28;19912;-62
2022/07/20 02:11:48;;;;;;;;;;;461.50;1868.80;;;;;;5088663;28;19912;-62
2022/07/20 02:14:14;;;;;;;;;;;461.50;1868.80;;;;;;5089009;28;20277;-62
2022/07/20 02:16:39;;;;;;;;;;;461.50;1868.80;;;;;;5088983;28;20277;-62
2022/07/20 02:19:05;;;;;;;;;;;461.40;1868.80;;;;;;5088233;28;19916;-62
2022/07/20 02:21:30;;;;;;;;;;;461.40;1868.80;;;;;;5088873;28;19914;-62
2022/07/20 02:23:56;;;;;;;;;;;461.30;1920.00;;;;;;5088482;28;19908;-62
2022/07/20 02:26:22;;;;;;;;;;;461.30;1894.40;;;;;;5089035;28;19955;-62
2022/07/20 02:28:48;;;;;;;;;;;461.40;1894.40;;;;;;5088495;28;20279;-63
2022/07/20 02:31:14;;;;;;;;;;;461.40;1894.40;;;;;;5088356;28;19977;-62
2022/07/20 02:33:40;;;;;;;;;;;461.30;1894.40;;;;;;5089180;28;19914;-62
2022/07/20 02:36:06;;;;;;;;;;;461.20;1894.40;;;;;;5088247;28;20011;-62
2022/07/20 02:38:31;;;;;;;;;;;461.20;1920.00;;;;;;5088631;28;19998;-62
2022/07/20 02:40:57;;;;;;;;;;;461.20;1894.40;;;;;;5088423;28;19912;-62
2022/07/20 02:43:22;;;;;;;;;;;461.30;1894.40;;;;;;5088505;28;19924;-62
2022/07/20 02:45:48;;;;;;;;;;;461.20;1894.40;;;;;;5090952;28;19912;-62
2022/07/20 02:48:14;;;;;;;;;;;461.30;1894.40;;;;;;5092363;28;20270;-62
2022/07/20 02:50:41;;;;;;;;;;;461.30;1894.40;;;;;;5092313;28;19977;-62
2022/07/20 02:53:07;;;;;;;;;;;461.20;1920.00;;;;;;5092123;28;19909;-62
2022/07/20 02:55:33;;;;;;;;;;;461.20;1920.00;;;;;;5092073;28;20350;-61
2022/07/20 02:57:59;;;;;;;;;;;461.20;1920.00;;;;;;5091761;28;19919;-62
2022/07/20 03:00:25;;;;;;;;;;;461.20;1920.00;;;;;;5091791;28;20053;-62
2022/07/20 03:02:51;;;;;;;;;;;461.10;1945.60;;;;;;5092246;28;20242;-63
2022/07/20 03:05:17;;;;;;;;;;;461.20;1920.00;;;;;;5091779;28;20405;-62
2022/07/20 03:07:43;;;;;;;;;;;461.20;1920.00;;;;;;5092048;28;19908;-62
2022/07/20 03:10:09;;;;;;;;;;;461.30;1894.40;;;;;;5091208;28;19944;-62
2022/07/20 03:12:35;;;;;;;;;;;461.30;1894.40;;;;;;5091763;28;19916;-62
2022/07/20 03:15:01;;;;;;;;;;;461.40;1894.40;;;;;;5092026;28;20350;-61
2022/07/20 03:17:26;;;;;;;;;;;461.40;1920.00;;;;;;5091740;28;19915;-62
2022/07/20 03:19:52;;;;;;;;;;;461.40;1920.00;;;;;;5091649;28;19912;-62
2022/07/20 03:22:17;;;;;;;;;;;461.40;1894.40;;;;;;5091945;28;19908;-61
2022/07/20 03:24:43;;;;;;;;;;;461.40;1920.00;;;;;;5091127;28;19912;-61
2022/07/20 03:27:09;;;;;;;;;;;461.30;1945.60;;;;;;5091294;28;19977;-61
2022/07/20 03:29:35;;;;;;;;;;;461.30;1971.20;;;;;;5091621;28;19962;-62
2022/07/20 03:32:00;;;;;;;;;;;461.40;1945.60;;;;;;5091506;28;19953;-62
2022/07/20 03:34:27;;;;;;;;;;;461.40;1945.60;;;;;;5091164;28;20285;-62
2022/07/20 03:36:53;;;;;;;;;;;461.40;1971.20;;;;;;5090960;28;19923;-62
2022/07/20 03:39:18;;;;;;;;;;;461.40;1971.20;;;;;;5091232;28;19912;-62
2022/07/20 03:41:44;;;;;;;;;;;461.40;1971.20;;;;;;5091198;28;19912;-62
2022/07/20 03:44:10;;;;;;;;;;;461.40;1945.60;;;;;;5091276;28;19916;-62
2022/07/20 03:46:35;;;;;;;;;;;461.50;1920.00;;;;;;5091089;28;19912;-62
2022/07/20 03:49:01;;;;;;;;;;;461.50;1945.60;;;;;;5090870;28;20003;-62
2022/07/20 03:51:27;;;;;;;;;;;461.50;1945.60;;;;;;5091710;28;19909;-62
2022/07/20 03:53:52;;;;;;;;;;;461.50;1971.20;;;;;;5093339;28;19915;-62
2022/07/20 03:56:18;;;;;;;;;;;461.50;1971.20;;;;;;5092342;28;20366;-61
2022/07/20 03:58:44;;;;;;;;;;;461.70;1945.60;;;;;;5092763;28;19909;-62
2022/07/20 04:01:09;;;;;;;;;;;461.70;1945.60;;;;;;5092177;28;19938;-62
2022/07/20 04:03:35;;;;;;;;;;;461.70;1945.60;;;;;;5092249;28;20012;-63
2022/07/20 04:06:01;;;;;;;;;;;486.40;1920.00;;;;;;5092605;28;20247;-62
2022/07/20 04:08:27;;;;;;;;;;;486.40;1894.40;;;;;;5092169;28;19909;-62
2022/07/20 04:10:53;;;;;;;;;;;486.40;1920.00;;;;;;5092233;28;20327;-63
2022/07/20 04:13:18;;;;;;;;;;;486.50;1920.00;;;;;;5092408;28;19938;-62
2022/07/20 04:15:44;;;;;;;;;;;486.50;1920.00;;;;;;5092154;28;19922;-64
2022/07/20 04:18:10;;;;;;;;;;;486.60;1920.00;;;;;;5092319;28;20368;-62
2022/07/20 04:20:35;;;;;;;;;;;486.70;1894.40;;;;;;5091812;28;19912;-62
2022/07/20 04:23:01;;;;;;;;;;;486.80;1868.80;;;;;;5092113;28;19994;-62
2022/07/20 04:25:26;;;;;;;;;;;486.90;1868.80;;;;;;5092029;28;20010;-62
2022/07/20 04:27:52;;;;;;;;;;;487.00;1868.80;;;;;;5092034;28;19908;-62
2022/07/20 04:30:18;;;;;;;;;;;487.00;1868.80;;;;;;5091788;28;19962;-62
2022/07/20 04:32:43;;;;;;;;;;;487.10;1868.80;;;;;;5092165;28;19908;-62
2022/07/20 04:35:09;;;;;;;;;;;487.20;1868.80;;;;;;5090414;28;20334;-62
2022/07/20 04:37:35;;;;;;;;;;;487.20;1868.80;;;;;;5091500;28;19908;-62
2022/07/20 04:40:01;;;;;;;;;;;487.30;1868.80;;;;;;5091752;28;19944;-62
2022/07/20 04:42:27;;;;;;;;;;;512.00;1843.20;;;;;;5091645;28;19916;-62
2022/07/20 04:44:53;;;;;;;;;;;512.20;1843.20;;;;;;5091760;28;19915;-62
2022/07/20 04:47:18;;;;;;;;;;;512.50;1817.60;;;;;;5091649;28;20030;-62
2022/07/20 04:49:44;;;;;;;;;;;563.70;1715.20;;;;;;5091708;28;20346;-63
2022/07/20 04:52:09;;;;;;;;;;;666.30;1408.00;;;;;;5091338;28;19908;-62
2022/07/20 04:54:35;;;;;;;;;;;717.40;1331.20;;;;;;5091239;28;19912;-63
2022/07/20 04:57:01;;;;;;;;;;;793.60;1203.20;;;;;;5091258;28;20342;-63
2022/07/20 04:59:27;;;;;;;;;;;820.00;1126.40;;;;;;5091278;28;19915;-59
2022/07/20 05:01:52;;;;;;;;;;;870.50;1075.20;;;;;;5091257;28;20007;-59
2022/07/20 05:04:18;;;;;;;;;;;871.30;1024.00;;;;;;5091311;28;20255;-59
2022/07/20 05:06:44;;;;;;;;;;;896.70;998.40;;;;;;5089991;28;19919;-57
2022/07/20 05:09:10;;;;;;;;;;;896.90;998.40;;;;;;5090463;28;19913;-58
2022/07/20 05:11:36;;;;;;;;;;;921.60;998.40;;;;;;5090842;28;19969;-58
2022/07/20 05:14:02;;;;;;;;;;;922.10;972.80;;;;;;5091012;28;19952;-57
2022/07/20 05:16:27;;;;;;;;;;;922.30;972.80;;;;;;5090636;28;19970;-58
2022/07/20 05:18:53;;;;;;;;;;;947.90;921.60;;;;;;5090973;28;19950;-57
2022/07/20 05:21:18;;;;;;;;;;;972.90;921.60;;;;;;5090974;28;19953;-58
2022/07/20 05:23:44;;;;;;;;;;;973.20;921.60;;;;;;5090927;28;20355;-59
2022/07/20 05:26:10;;;;;;;;;;;973.60;921.60;;;;;;5090948;28;19954;-58
2022/07/20 05:28:36;;;;;;;;;;;998.70;921.60;;;;;;5092726;28;20004;-60
2022/07/20 05:31:02;;;;;;;;;;;1049.60;896.00;;;;;;5103144;28;19915;-58
2022/07/20 05:33:28;;;;;;;;;;;1075.60;844.80;;;;;;5098587;28;19908;-59
2022/07/20 05:35:53;;;;;;;;;;;1100.90;819.20;;;;;;5100021;28;19916;-60
2022/07/20 05:38:20;;;;;;;;;;;1101.00;844.80;;;;;;5100528;28;20385;-59
2022/07/20 05:40:46;;;;;;;;;;;1101.60;793.60;;;;;;5095632;28;19912;-59
2022/07/20 05:43:11;;;;;;;;;;;1126.70;819.20;;;;;;5099416;28;19919;-59
2022/07/20 05:45:37;;;;;;;;;;;1127.00;793.60;;;;;;5099998;28;19908;-59
2022/07/20 05:48:05;;;;;;;;;;;1126.80;793.60;;;;;;5098307;28;20434;-59
2022/07/20 05:50:31;;;;;;;;;;;1152.10;793.60;;;;;;5099656;28;20319;-59
2022/07/20 05:52:57;;;;;;;;;;;1177.60;742.40;;;;;;5099986;28;19912;-57
2022/07/20 05:55:22;;;;;;;;;;;1178.10;742.40;;;;;;5096873;28;20353;-60
2022/07/20 05:57:48;;;;;;;;;;;1203.20;742.40;;;;;;5099615;28;19915;-60
2022/07/20 06:00:14;;;;;;;;;;;1178.50;716.80;;;;;;5097750;28;19922;-60
2022/07/20 06:02:39;;;;;;;;;;;1203.60;716.80;;;;;;5095368;28;20274;-60
2022/07/20 06:05:05;;;;;;;;;;;1203.90;716.80;;;;;;5099158;28;19912;-60
2022/07/20 06:07:31;;;;;;;;;;;1229.50;716.80;;;;;;5100005;28;19912;-60
2022/07/20 06:09:56;;;;;;;;;;;1254.80;716.80;;;;;;5098000;28;19916;-60
2022/07/20 06:12:22;;;;;;;;;;;1254.60;716.80;;;;;;5099879;28;19912;-60
2022/07/20 06:14:47;;;;;;;;;;;1255.00;691.20;;;;;;5099064;28;19984;-60
2022/07/20 06:17:13;;;;;;;;;;;1255.00;716.80;;;;;;5090902;28;19930;-60
2022/07/20 06:19:39;;;;;;;;;;;1254.60;716.80;;;;;;5091105;28;19919;-61
2022/07/20 06:22:04;;;;;;;;;;;1254.40;742.40;;;;;;5094574;28;19935;-60
2022/07/20 06:24:30;;;;;;;;;;;1254.80;716.80;;;;;;5094422;28;19908;-61
2022/07/20 06:26:55;;;;;;;;;;;1255.00;716.80;;;;;;5094237;28;19918;-62
2022/07/20 06:29:21;;;;;;;;;;;1255.10;691.20;;;;;;5094179;28;19908;-60
2022/07/20 06:31:46;;;;;;;;;;;1255.10;691.20;;;;;;5093926;28;19908;-60
2022/07/20 06:34:13;;;;;;;;;;;1280.20;691.20;;;;;;5094297;28;19953;-61
2022/07/20 06:36:38;;;;;;;;;;;1280.20;665.60;;;;;;5093248;28;19916;-60
2022/07/20 06:39:04;;;;;;;;;;;1280.70;665.60;;;;;;5093529;28;20332;-60
2022/07/20 06:41:30;;;;;;;;;;;1280.70;665.60;;;;;;5093464;28;19908;-60
2022/07/20 06:43:56;;;;;;;;;;;1305.90;640.00;;;;;;5103167;28;19924;-60
2022/07/20 06:46:21;;;;;;;;;;;1305.90;640.00;;;;;;5102241;28;19918;-58
2022/07/20 06:48:47;;;;;;;;;;;1305.60;640.00;;;;;;5088739;28;19923;-61
2022/07/20 06:51:12;;;;;;;;;;;1305.60;640.00;;;;;;5097983;28;19912;-59
2022/07/20 06:53:38;;;;;;;;;;;1255.00;665.60;;;;;;5093099;28;19918;-61
2022/07/20 06:56:04;;;;;;;;;;;1254.90;665.60;;;;;;5093423;28;20002;-62
2022/07/20 06:58:30;;;;;;;;;;;1305.60;614.40;;;;;;5093113;28;20423;-61
2022/07/20 07:00:56;;;;;;;;;;;1305.60;640.00;;;;;;5101621;28;19927;-61
2022/07/20 07:03:21;;;;;;;;;;;1305.90;614.40;;;;;;5102455;28;19920;-59
2022/07/20 07:05:47;;;;;;;;;;;1306.50;614.40;;;;;;5100733;28;19912;-61
2022/07/20 07:08:12;;;;;;;;;;;1331.40;614.40;;;;;;5102345;28;19915;-60
2022/07/20 07:10:38;;;;;;;;;;;1331.90;588.80;;;;;;5103030;28;20428;-61
2022/07/20 07:13:03;;;;;;;;;;;1305.70;588.80;;;;;;5101122;28;19963;-61
2022/07/20 07:15:30;;;;;;;;;;;1305.60;614.40;;;;;;5102456;28;19915;-61
2022/07/20 07:17:55;;;;;;;;;;;1305.90;588.80;;;;;;5102385;28;20392;-61
2022/07/20 07:20:21;;;;;;;;;;;1305.90;588.80;;;;;;5100957;28;19950;-60
2022/07/20 07:22:47;;;;;;;;;;;;;;;;;;5102756;28;19907;-59
2022/07/20 07:25:12;;;;;;;;;;;1280.50;640.00;;;;;;5102308;28;19998;-60
2022/07/20 07:27:38;;;;;;;;;;;1254.40;640.00;;;;;;5100929;28;20377;-61
2022/07/20 07:30:04;;;;;;;;;;;1254.40;640.00;;;;;;5101624;28;20427;-60
2022/07/20 07:32:30;;;;;;;;;;;1305.70;588.80;;;;;;5101549;28;19908;-60
2022/07/20 07:34:55;;;;;;;;;;;1331.70;588.80;;;;;;5101059;28;20022;-61
2022/07/20 07:37:21;;;;;;;;;;;1331.90;563.20;;;;;;5102950;28;19915;-59
2022/07/20 07:39:47;;;;;;;;;;;1357.40;563.20;;;;;;5100778;28;19984;-63
2022/07/20 07:42:12;;;;;;;;;;;1306.20;563.20;;;;;;5101583;28;19973;-62
2022/07/20 07:44:38;;;;;;;;;;;1357.20;563.20;;;;;;5102297;28;19916;-61
2022/07/20 07:47:03;;;;;;;;;;;1356.80;563.20;;;;;;5100545;28;19908;-60
2022/07/20 07:49:29;;;;;;;;;;;1357.20;563.20;;;;;;5096567;28;19916;-62
2022/07/20 07:51:54;;;;;;;;;;;1357.50;563.20;;;;;;5091789;28;20374;-59
2022/07/20 07:54:20;;;;;;;;;;;1357.20;563.20;;;;;;5092225;28;19998;-59
2022/07/20 07:56:45;;;;;;;;;;;1357.70;537.60;;;;;;5091878;28;19920;-63
2022/07/20 07:59:11;;;;;;;;;;;1382.60;563.20;;;;;;5092072;28;19960;-59
2022/07/20 08:01:37;;;;;;;;;;;1356.80;563.20;;;;;;5091732;28;19927;-59
2022/07/20 08:04:03;;;;;;;;;;;1382.40;563.20;;;;;;5091999;28;19942;-62
2022/07/20 08:06:28;;;;;;;;;;;1306.30;537.60;;;;;;5091544;28;19912;-60
2022/07/20 08:08:54;;;;;;;;;;;1306.30;537.60;;;;;;5092305;28;20358;-60
2022/07/20 08:11:20;;;;;;;;;;;1305.90;537.60;;;;;;5091927;28;19951;-60
2022/07/20 08:13:45;;;;;;;;;;;1356.90;563.20;;;;;;5091704;28;19952;-62
2022/07/20 08:16:11;;;;;;;;;;;1356.80;563.20;;;;;;5091784;28;19916;-62
2022/07/20 08:18:36;;;;;;;;;;;1331.40;537.60;;;;;;5091545;28;20405;-61
2022/07/20 08:21:02;;;;;;;;;;;1280.20;563.20;;;;;;5088904;28;19908;-61
2022/07/20 08:23:28;;;;;;;;;;;1229.40;563.20;;;;;;5091814;28;19955;-60
2022/07/20 08:25:53;;;;;;;;;;;1177.80;588.80;;;;;;5091613;28;19908;-59
2022/07/20 08:28:20;;;;;;;;;;;1101.60;665.60;;;;;;5091338;28;19912;-61
2022/07/20 08:30:47;;;;;;;;;;;1075.70;665.60;;;;;;5090773;28;19958;-58
2022/07/20 08:33:13;;;;;;;;;;;998.80;768.00;;;;;;5091527;28;19922;-58
2022/07/20 08:35:39;;;;;;;;;;;998.40;793.60;;;;;;5091156;28;19916;-60
2022/07/20 08:38:05;;;;;;;;;;;972.80;793.60;;;;;;5091324;28;19960;-61
2022/07/20 08:40:31;;;;;;;;;;;973.20;768.00;;;;;;5091343;28;19919;-60
2022/07/20 08:42:57;;;;;;;;;;;948.00;768.00;;;;;;5090384;28;19912;-60
2022/07/20 08:45:23;;;;;;;;;;;922.50;793.60;;;;;;5091647;28;19912;-60
2022/07/20 08:47:49;;;;;;;;;;;921.80;844.80;;;;;;5088395;28;19915;-59
2022/07/20 08:50:19;;;;;;;;;;;896.50;870.40;;;;;;5090986;28;19908;-57
2022/07/20 08:52:45;;;;;;;;;;;896.80;844.80;;;;;;5090734;28;19914;-58
2022/07/20 08:55:11;;;;;;;;;;;921.80;870.40;;;;;;5090939;28;19912;-60
2022/07/20 08:57:37;;;;;;;;;;;921.90;844.80;;;;;;5090858;28;19908;-56
2022/07/20 09:00:03;;;;;;;;;;;896.40;844.80;;;;;;5090816;28;19916;-58
2022/07/20 09:02:29;;;;;;;;;;;896.80;870.40;;;;;;5088135;28;20407;-58
2022/07/20 09:04:54;;;;;;;;;;;896.70;844.80;;;;;;5090854;28;19908;-57
2022/07/20 09:07:39;;;;;;;;;;;896.00;844.80;;;;;;5090837;28;20259;-58
2022/07/20 09:10:10;;;;;;;;;;;871.30;870.40;;;;;;5090234;28;19908;-59
2022/07/20 09:13:13;;;;;;;;;;;871.30;870.40;;;;;;5090518;28;19973;-58
2022/07/20 09:15:39;;;;;;;;;;;871.30;870.40;;;;;;5047915;28;20412;-58
2022/07/20 09:18:08;;;;;;;;;;;896.40;844.80;;;;;;5048129;28;19943;-58
2022/07/20 09:20:34;;;;;;;;;;;870.90;870.40;;;;;;5045539;28;20395;-59
2022/07/20 09:23:04;;;;;;;;;;;896.20;844.80;;;;;;5048303;28;19944;-60
2022/07/20 09:25:30;;;;;;;;;;;896.30;870.40;;;;;;5048547;28;20136;-60
2022/07/20 09:27:56;;;;;;;;;;;896.40;844.80;;;;;;5048275;28;20009;-60
2022/07/20 09:30:22;;;;;;;;;;;871.20;844.80;;;;;;5048374;28;19913;-60
2022/07/20 09:32:50;;;;;;;;;;;871.30;844.80;;;;;;5048181;28;20449;-60
2022/07/20 09:35:15;;;;;;;;;;;870.90;870.40;;;;;;5048039;28;19917;-60
2022/07/20 09:37:41;;;;;;;;;;;871.10;870.40;;;;;;5048319;28;19916;-60
2022/07/20 09:40:07;;;;;;;;;;;871.00;870.40;;;;;;5047958;28;20440;-59
2022/07/20 09:42:36;;;;;;;;;;;870.50;870.40;;;;;;5048330;28;19913;-60
2022/07/20 09:45:20;;;;;;;;;;;870.60;870.40;;;;;;5048215;28;20371;-60
2022/07/20 09:48:06;;;;;;;;;;;871.00;870.40;;;;;;5048055;28;19913;-60
2022/07/20 09:50:33;;;;;;;;;;;870.70;870.40;;;;;;5085818;28;20274;-61
2022/07/20 09:52:58;;;;;;;;;;;870.50;870.40;;;;;;5090431;28;19908;-60
2022/07/20 09:55:24;;;;;;;;;;;871.00;870.40;;;;;;5090380;28;20015;-60
2022/07/20 09:57:51;;;;;;;;;;;870.70;870.40;;;;;;5090477;28;20350;-60
2022/07/20 10:00:17;;;;;;;;;;;870.70;870.40;;;;;;5090040;28;20003;-60
2022/07/20 10:02:50;;;;;;;;;;;870.60;870.40;;;;;;5090564;28;20002;-60
2022/07/20 10:05:17;;;;;;;;;;;870.50;870.40;;;;;;5090250;28;19912;-61
2022/07/20 10:07:43;;;;;;;;;;;870.80;896.00;;;;;;5090493;28;19908;-60
2022/07/20 10:10:09;;;;;;;;;;;870.70;870.40;;;;;;5090045;28;19908;-60
2022/07/20 10:12:35;;;;;;;;;;;870.50;870.40;;;;;;5090328;28;19935;-60
2022/07/20 10:15:02;;;;;;;;;;;870.80;896.00;;;;;;5090461;28;20056;-60
2022/07/20 10:17:33;;;;;;;;;;;870.90;870.40;;;;;;5090300;28;19913;-60
2022/07/20 10:19:59;;;;;;;;;;;870.90;870.40;;;;;;5090092;28;19908;-60
2022/07/20 10:22:24;;;;;;;;;;;870.60;896.00;;;;;;5090318;28;19931;-60
2022/07/20 10:25:09;;;;;;;;;;;870.70;870.40;;;;;;5088670;28;20258;-59
2022/07/20 10:27:36;;;;;;;;;;;870.50;870.40;;;;;;5088470;28;19961;-59
2022/07/20 10:30:15;;;;;;;;;;;870.80;921.60;;;;;;5088618;28;19974;-59
2022/07/20 10:32:51;;;;;;;;;;;870.90;896.00;;;;;;5088716;28;19912;-59
2022/07/20 10:35:27;;;;;;;;;;;870.70;870.40;;;;;;5088258;28;19920;-59
2022/07/20 10:37:54;;;;;;;;;;;870.70;870.40;;;;;;5088096;28;19966;-59
2022/07/20 10:40:20;;;;;;;;;;;870.50;896.00;;;;;;5088499;28;19909;-60
2022/07/20 10:42:46;;;;;;;;;;;870.40;896.00;;;;;;5088331;28;19923;-60
2022/07/20 10:45:22;;;;;;;;;;;845.60;921.60;;;;;;5090604;28;19951;-59
2022/07/20 10:47:50;;;;;;;;;;;845.40;896.00;;;;;;5089505;28;19912;-59
2022/07/20 10:50:17;;;;;;;;;;;845.60;896.00;;;;;;5089766;28;19993;-60
2022/07/20 10:52:45;;;;;;;;;;;845.60;896.00;;;;;;5089965;28;19915;-59
2022/07/20 10:55:30;;;;;;;;;;;845.70;896.00;;;;;;5090015;28;19918;-59
2022/07/20 10:57:56;;;;;;;;;;;845.50;921.60;;;;;;5090002;28;19912;-59
2022/07/20 11:00:28;;;;;;;;;;;845.70;896.00;;;;;;5089799;28;20434;-59
2022/07/20 11:02:53;;;;;;;;;;;845.70;921.60;;;;;;5089501;28;19962;-60
2022/07/20 11:05:20;;;;;;;;;;;845.70;896.00;;;;;;5090263;28;19908;-61
2022/07/20 11:07:46;;;;;;;;;;;845.60;896.00;;;;;;5093288;28;20389;-59
2022/07/20 11:10:23;;;;;;;;;;;845.60;896.00;;;;;;5093426;28;19915;-58
2022/07/20 11:12:55;;;;;;;;;;;845.70;896.00;;;;;;5093180;28;19919;-61
2022/07/20 11:15:20;;;;;;;;;;;870.50;921.60;;;;;;5093298;28;19923;-61
2022/07/20 11:17:46;;;;;;;;;;;845.70;921.60;;;;;;5092729;28;19916;-62
2022/07/20 11:20:15;;;;;;;;;;;845.50;921.60;;;;;;5092868;28;20315;-60
2022/07/20 11:22:41;;;;;;;;;;;845.60;921.60;;;;;;5092745;28;19946;-61
2022/07/20 11:25:06;;;;;;;;;;;845.30;921.60;;;;;;5091132;28;19962;-61
2022/07/20 11:27:32;;;;;;;;;;;845.10;947.20;;;;;;5092555;28;20327;-60
2022/07/20 11:29:58;;;;;;;;;;;844.90;947.20;;;;;;5092376;28;19908;-60
2022/07/20 11:32:27;;;;;;;;;;;844.90;947.20;;;;;;5092703;28;19915;-61
2022/07/20 11:34:53;;;;;;;;;;;845.20;921.60;;;;;;5092566;28;19915;-57
2022/07/20 11:37:20;;;;;;;;;;;844.90;921.60;;;;;;5092775;28;19915;-60
2022/07/20 11:39:46;;;;;;;;;;;845.00;947.20;;;;;;5092907;28;20061;-60
2022/07/20 11:42:13;;;;;;;;;;;845.40;972.80;;;;;;5092924;28;20407;-60
2022/07/20 11:44:39;;;;;;;;;;;845.20;921.60;;;;;;5092550;28;19912;-59
2022/07/20 11:47:05;;;;;;;;;;;845.40;947.20;;;;;;5092751;28;19955;-60
2022/07/20 11:49:30;;;;;;;;;;;845.40;947.20;;;;;;5092849;28;19909;-61
2022/07/20 11:51:58;;;;;;;;;;;845.60;921.60;;;;;;5092638;28;19919;-61
2022/07/20 11:54:33;;;;;;;;;;;845.70;921.60;;;;;;5092727;28;19908;-60
2022/07/20 11:56:59;;;;;;;;;;;845.70;921.60;;;;;;5092495;28;20353;-60
2022/07/20 11:59:25;;;;;;;;;;;845.70;947.20;;;;;;5092624;28;20456;-60
2022/07/20 12:01:52;;;;;;;;;;;845.70;921.60;;;;;;5092409;28;20390;-60
2022/07/20 12:04:19;;;;;;;;;;;845.40;921.60;;;;;;5092192;28;19912;-60
2022/07/20 12:06:45;;;;;;;;;;;845.70;921.60;;;;;;5092383;28;20376;-61
2022/07/20 12:09:12;;;;;;;;;;;845.50;921.60;;;;;;5092416;28;19930;-61
2022/07/20 12:11:55;;;;;;;;;;;845.50;921.60;;;;;;5092324;28;19918;-60
2022/07/20 12:14:47;;;;;;;;;;;845.60;947.20;;;;;;5092545;28;20018;-61
2022/07/20 12:17:21;;;;;;;;;;;845.70;921.60;;;;;;5088886;28;19916;-58
2022/07/20 12:19:48;;;;;;;;;;;845.50;921.60;;;;;;5091738;28;19909;-58
2022/07/20 12:22:39;;;;;;;;;;;845.60;921.60;;;;;;5091978;28;20262;-58
2022/07/20 12:25:07;;;;;;;;;;;845.70;921.60;;;;;;5089824;28;19908;-61
2022/07/20 12:27:34;;;;;;;;;;;845.70;921.60;;;;;;5092159;28;20301;-61
2022/07/20 12:30:00;;;;;;;;;;;845.70;921.60;;;;;;5091801;28;19908;-60
2022/07/20 12:32:30;;;;;;;;;;;845.60;921.60;;;;;;5091866;28;20470;-59
2022/07/20 12:34:58;;;;;;;;;;;845.60;947.20;;;;;;5091750;28;19916;-59
2022/07/20 12:37:24;;;;;;;;;;;845.50;947.20;;;;;;5091718;28;19908;-60
2022/07/20 12:39:53;;;;;;;;;;;845.70;947.20;;;;;;5091393;28;19908;-59
2022/07/20 12:42:19;;;;;;;;;;;845.70;921.60;;;;;;5091733;28;19912;-59
2022/07/20 12:44:46;;;;;;;;;;;845.70;921.60;;;;;;5091773;28;19919;-61
2022/07/20 12:47:12;;;;;;;;;;;845.70;921.60;;;;;;5091659;28;19978;-60
2022/07/20 12:49:38;;;;;;;;;;;845.40;947.20;;;;;;5091366;28;19966;-61
2022/07/20 12:52:04;;;;;;;;;;;845.60;947.20;;;;;;5091762;28;19947;-59
2022/07/20 12:54:30;;;;;;;;;;;845.70;947.20;;;;;;5091395;28;20274;-60
2022/07/20 12:56:56;;;;;;;;;;;845.60;921.60;;;;;;5091359;28;19922;-60
2022/07/20 12:59:21;;;;;;;;;;;845.60;921.60;;;;;;5091366;28;19943;-61
2022/07/20 13:01:48;;;;;;;;;;;845.70;921.60;;;;;;5091013;28;19920;-60
2022/07/20 13:04:21;;;;;;;;;;;845.70;921.60;;;;;;5091256;28;19961;-60
2022/07/20 13:06:48;;;;;;;;;;;845.50;921.60;;;;;;5091260;28;20003;-60
2022/07/20 13:09:14;;;;;;;;;;;845.70;921.60;;;;;;5091318;28;20258;-60
2022/07/20 13:11:40;;;;;;;;;;;870.50;921.60;;;;;;5090998;28;20016;-60
2022/07/20 13:14:09;;;;;;;;;;;870.50;921.60;;;;;;5090864;28;20026;-61
2022/07/20 13:16:35;;;;;;;;;;;870.70;947.20;;;;;;5091055;28;19916;-61
2022/07/20 13:19:01;;;;;;;;;;;870.70;921.60;;;;;;5091036;28;19953;-60
2022/07/20 13:21:26;;;;;;;;;;;870.50;921.60;;;;;;5091006;28;19966;-61
2022/07/20 13:23:52;;;;;;;;;;;870.60;921.60;;;;;;5091087;28;19908;-61
2022/07/20 13:26:18;;;;;;;;;;;845.70;921.60;;;;;;5090947;28;19908;-61
2022/07/20 13:28:43;;;;;;;;;;;845.60;921.60;;;;;;5090694;28;19912;-60
2022/07/20 13:31:09;;;;;;;;;;;845.70;921.60;;;;;;5090769;28;19912;-60
2022/07/20 13:33:34;;;;;;;;;;;845.70;921.60;;;;;;5090892;28;19915;-59
2022/07/20 13:36:00;;;;;;;;;;;845.70;921.60;;;;;;5090508;28;19961;-59
2022/07/20 13:38:26;;;;;;;;;;;845.70;921.60;;;;;;5090782;28;20374;-60
2022/07/20 13:40:52;;;;;;;;;;;845.70;921.60;;;;;;5090603;28;19912;-58
2022/07/20 13:43:18;;;;;;;;;;;870.50;921.60;;;;;;5090581;28;20393;-58
2022/07/20 13:45:44;;;;;;;;;;;845.70;921.60;;;;;;5090884;28;19947;-59